createdAt,value
2022-08-05T00:00:46.749Z,8.93
2022-08-05T00:03:17.990Z,8.70
2022-08-05T00:06:06.507Z,10.13
2022-08-05T00:08:36.175Z,8.50
2022-08-05T00:11:20.666Z,9.25
2022-08-05T00:13:58.670Z,10.18
2022-08-05T00:16:35.711Z,9.30
2022-08-05T00:19:05.445Z,9.52
2022-08-05T00:21:35.975Z,10.85
2022-08-05T00:24:10.169Z,13.02
2022-08-05T00:26:39.229Z,9.98
2022-08-05T00:29:18.615Z,9.95
2022-08-05T00:32:11.134Z,9.15
2022-08-05T00:35:04.349Z,10.35
2022-08-05T00:37:35.777Z,10.10
2022-08-05T00:40:26.756Z,10.57
2022-08-05T00:42:59.044Z,9.95
2022-08-05T00:45:38.345Z,11.18
2022-08-05T00:48:13.444Z,9.45
2022-08-05T00:50:45.834Z,10.55
2022-08-05T00:53:44.924Z,11.10
2022-08-05T00:56:05.661Z,9.85
2022-08-05T00:58:37.513Z,9.80
2022-08-05T01:01:08.588Z,10.43
2022-08-05T01:03:36.371Z,13.23
2022-08-05T01:06:05.512Z,9.45
2022-08-05T01:08:43.130Z,10.35
2022-08-05T01:11:22.409Z,11.05
2022-08-05T01:13:59.788Z,8.93
2022-08-05T01:16:31.603Z,9.27
2022-08-05T01:19:06.451Z,8.95
2022-08-05T01:21:55.530Z,11.20
2022-08-05T01:24:44.257Z,8.75
2022-08-05T01:27:25.136Z,9.05
2022-08-05T01:29:59.501Z,10.23
2022-08-05T01:32:33.548Z,9.32
2022-08-05T01:35:10.407Z,9.45
2022-08-05T01:37:55.233Z,9.35
2022-08-05T01:40:28.940Z,8.57
2022-08-05T01:42:57.947Z,8.18
2022-08-05T01:45:27.835Z,8.38
2022-08-05T01:48:03.240Z,8.68
2022-08-05T01:50:41.131Z,8.38
2022-08-05T01:53:57.979Z,9.90
2022-08-05T01:56:13.902Z,9.27
2022-08-05T01:59:06.230Z,11.07
2022-08-05T02:01:39.809Z,12.57
2022-08-05T02:04:10.829Z,9.60
2022-08-05T02:06:39.353Z,10.18
2022-08-05T02:09:07.781Z,9.88
2022-08-05T02:12:10.214Z,10.73
2022-08-05T02:14:39.979Z,9.38
2022-08-05T02:18:28.062Z,10.73
2022-08-05T02:20:23.842Z,9.02
2022-08-05T02:23:01.598Z,9.05
2022-08-05T02:25:34.298Z,9.65
2022-08-05T02:28:29.370Z,9.68
2022-08-05T02:31:04.050Z,8.88
2022-08-05T02:33:38.788Z,8.77
2022-08-05T02:36:13.483Z,9.18
2022-08-05T02:38:53.492Z,8.85
2022-08-05T02:41:23.182Z,12.20
2022-08-05T02:44:06.288Z,9.25
2022-08-05T02:46:53.505Z,9.63
2022-08-05T02:49:36.215Z,9.77
2022-08-05T02:52:26.205Z,9.75
2022-08-05T02:55:01.543Z,9.35
2022-08-05T02:58:19.681Z,9.70
2022-08-05T03:00:18.533Z,10.43
2022-08-05T03:02:47.974Z,9.00
2022-08-05T03:05:16.129Z,10.68
2022-08-05T03:08:06.847Z,8.70
2022-08-05T03:10:33.408Z,9.48
2022-08-05T03:15:27.463Z,9.60
2022-08-05T03:17:57.825Z,10.63
2022-08-05T03:20:28.196Z,11.60
2022-08-05T03:22:57.458Z,9.48
2022-08-05T03:25:33.752Z,10.40
2022-08-05T03:28:18.844Z,9.60
2022-08-05T03:30:48.803Z,10.23
2022-08-05T03:33:17.218Z,10.07
2022-08-05T03:35:47.882Z,10.60
2022-08-05T03:38:16.101Z,9.70
2022-08-05T03:40:48.532Z,10.80
2022-08-05T03:43:58.492Z,9.55
2022-08-05T03:46:08.155Z,9.57
2022-08-05T03:48:36.860Z,9.38
2022-08-05T03:52:38.875Z,10.60
2022-08-05T03:55:34.326Z,9.57
2022-08-05T03:57:29.044Z,10.48
2022-08-05T04:00:12.354Z,9.65
2022-08-05T04:02:58.019Z,8.70
2022-08-05T04:05:34.053Z,9.27
2022-08-05T04:08:05.480Z,9.90
2022-08-05T04:10:38.102Z,9.35
2022-08-05T04:13:07.986Z,8.50
2022-08-05T04:15:36.756Z,8.75
2022-08-05T04:18:09.841Z,8.90
2022-08-05T04:20:41.319Z,8.82
2022-08-05T04:23:16.223Z,8.95
2022-08-05T04:25:57.316Z,8.40
2022-08-05T04:28:30.681Z,10.32
2022-08-05T04:31:00.984Z,9.88
2022-08-05T04:34:18.029Z,9.80
2022-08-05T04:36:45.259Z,9.98
2022-08-05T04:39:05.116Z,11.85
2022-08-05T04:41:37.733Z,10.88
2022-08-05T04:44:09.258Z,11.55
2022-08-05T04:46:41.130Z,11.60
2022-08-05T04:49:15.021Z,11.70
2022-08-05T04:51:43.981Z,13.00
2022-08-05T04:54:14.732Z,11.70
2022-08-05T04:56:42.428Z,10.02
2022-08-05T04:59:22.192Z,11.27
2022-08-05T05:02:07.773Z,11.35
2022-08-05T05:04:44.038Z,11.55
2022-08-05T05:07:17.609Z,10.95
2022-08-05T05:09:45.842Z,12.05
2022-08-05T05:12:14.948Z,11.68
2022-08-05T05:14:49.375Z,10.90
2022-08-05T05:17:23.340Z,11.98
2022-08-05T05:19:56.590Z,12.35
2022-08-05T05:22:26.122Z,12.95
2022-08-05T05:24:57.549Z,12.30
2022-08-05T05:27:41.762Z,13.23
2022-08-05T05:30:29.420Z,12.18
2022-08-05T05:33:09.080Z,13.48
2022-08-05T05:35:47.455Z,12.30
2022-08-05T05:38:22.874Z,12.88
2022-08-05T05:40:57.046Z,13.05
2022-08-05T05:43:54.018Z,12.55
2022-08-05T05:46:16.105Z,9.65
2022-08-05T05:48:48.545Z,11.50
2022-08-05T05:51:19.560Z,10.00
2022-08-05T05:53:58.287Z,9.13
2022-08-05T05:56:34.469Z,13.52
2022-08-05T05:59:06.367Z,11.57
2022-08-05T06:01:39.487Z,9.90
2022-08-05T06:04:14.574Z,11.02
2022-08-05T06:06:47.416Z,9.15
2022-08-05T06:09:27.443Z,10.85
2022-08-05T06:12:09.648Z,9.98
2022-08-05T06:14:42.469Z,9.77
2022-08-05T06:17:21.898Z,10.30
2022-08-05T06:19:56.555Z,10.23
2022-08-05T06:22:29.256Z,10.45
2022-08-05T06:24:56.964Z,9.15
2022-08-05T06:28:10.841Z,9.52
2022-08-05T06:30:20.926Z,10.25
2022-08-05T06:32:50.732Z,7.55
2022-08-05T06:36:04.175Z,9.82
2022-08-05T06:38:11.302Z,11.30
2022-08-05T06:40:44.533Z,8.25
2022-08-05T06:43:58.162Z,9.43
2022-08-05T06:46:04.163Z,8.15
2022-08-05T06:48:55.797Z,8.48
2022-08-05T06:51:29.974Z,8.48
2022-08-05T06:54:03.964Z,7.90
2022-08-05T06:56:34.245Z,7.32
2022-08-05T06:59:09.461Z,7.30
2022-08-05T07:01:37.021Z,8.63
2022-08-05T07:04:09.509Z,8.98
2022-08-05T07:06:38.323Z,8.55
2022-08-05T07:09:06.195Z,9.43
2022-08-05T07:11:37.260Z,11.10
2022-08-05T07:14:29.243Z,8.65
2022-08-05T07:17:58.596Z,14.38
2022-08-05T07:20:31.203Z,7.70
2022-08-05T07:22:39.470Z,7.10
2022-08-05T07:25:54.458Z,7.05
2022-08-05T07:28:05.328Z,6.90
2022-08-05T07:30:38.251Z,6.97
2022-08-05T07:33:10.621Z,9.52
2022-08-05T07:36:03.520Z,6.60
2022-08-05T07:38:35.389Z,6.65
2022-08-05T07:42:13.932Z,9.48
2022-08-05T07:44:14.382Z,6.78
2022-08-05T07:46:50.155Z,7.47
2022-08-05T07:49:18.816Z,6.78
2022-08-05T07:51:53.050Z,7.10
2022-08-05T07:54:30.654Z,6.80
2022-08-05T07:57:41.972Z,6.72
2022-08-05T07:59:48.926Z,6.32
2022-08-05T08:02:17.781Z,6.18
2022-08-05T08:04:47.546Z,8.52
2022-08-05T08:07:18.554Z,6.03
2022-08-05T08:09:53.079Z,7.43
2022-08-05T08:12:33.294Z,6.45
2022-08-05T08:15:15.804Z,5.68
2022-08-05T08:17:49.672Z,5.70
2022-08-05T08:20:59.907Z,6.00
2022-08-05T08:24:03.403Z,5.63
2022-08-05T08:26:04.547Z,7.80
2022-08-05T08:28:36.275Z,5.05
2022-08-05T08:31:07.029Z,4.95
2022-08-05T08:33:37.730Z,4.45
2022-08-05T08:38:56.987Z,4.45
2022-08-05T08:41:50.633Z,5.55
2022-08-05T08:45:22.886Z,4.50
2022-08-05T08:47:47.825Z,4.78
2022-08-05T08:50:23.369Z,6.47
2022-08-05T08:52:53.999Z,6.05
2022-08-05T08:56:01.653Z,5.88
2022-08-05T08:58:12.997Z,5.60
2022-08-05T09:00:42.444Z,5.35
2022-08-05T09:03:12.205Z,5.07
2022-08-05T09:06:07.754Z,6.53
2022-08-05T09:08:32.336Z,6.53
2022-08-05T09:11:00.706Z,5.60
2022-08-05T09:13:31.453Z,7.47
2022-08-05T09:16:01.145Z,6.53
2022-08-05T09:18:30.191Z,4.80
2022-08-05T09:20:59.656Z,6.50
2022-08-05T09:23:37.275Z,5.22
2022-08-05T09:26:20.504Z,5.72
2022-08-05T09:28:49.667Z,5.28
2022-08-05T09:31:22.682Z,4.80
2022-08-05T09:34:09.852Z,5.05
2022-08-05T09:36:54.052Z,4.88
2022-08-05T09:39:39.393Z,6.50
2022-08-05T09:42:28.186Z,5.53
2022-08-05T09:45:03.200Z,4.28
2022-08-05T09:47:55.099Z,3.83
2022-08-05T09:50:38.489Z,6.28
2022-08-05T09:53:22.876Z,6.32
2022-08-05T09:56:03.633Z,4.22
2022-08-05T09:58:33.943Z,4.10
2022-08-05T10:01:15.222Z,5.85
2022-08-05T10:04:03.193Z,4.18
2022-08-05T10:06:32.836Z,3.90
2022-08-05T10:09:25.172Z,3.88
2022-08-05T10:12:18.338Z,4.38
2022-08-05T10:15:34.399Z,4.65
2022-08-05T10:18:12.979Z,4.50
2022-08-05T10:20:48.569Z,4.30
2022-08-05T10:23:59.096Z,4.35
2022-08-05T10:26:32.433Z,4.50
2022-08-05T10:29:01.602Z,5.32
2022-08-05T10:32:54.430Z,4.30
2022-08-05T10:34:18.291Z,4.65
2022-08-05T10:36:53.683Z,4.68
2022-08-05T10:40:03.566Z,6.55
2022-08-05T10:42:33.636Z,5.60
2022-08-05T10:45:21.359Z,4.95
2022-08-05T10:48:29.918Z,4.45
2022-08-05T10:50:59.958Z,4.20
2022-08-05T10:53:45.531Z,5.22
2022-08-05T10:56:21.455Z,4.88
2022-08-05T10:59:06.970Z,4.03
2022-08-05T11:01:54.998Z,4.57
2022-08-05T11:04:34.344Z,4.45
2022-08-05T11:07:11.961Z,4.25
2022-08-05T11:09:46.092Z,3.88
2022-08-05T11:12:54.208Z,4.88
2022-08-05T11:16:00.851Z,4.50
2022-08-05T11:18:34.606Z,4.15
2022-08-05T11:21:06.305Z,5.65
2022-08-05T11:24:05.601Z,3.75
2022-08-05T11:26:33.532Z,4.25
2022-08-05T11:29:11.665Z,3.53
2022-08-05T11:31:57.571Z,3.80
2022-08-05T11:34:51.665Z,3.80
2022-08-05T11:38:29.841Z,3.67
2022-08-05T11:41:35.104Z,3.97
2022-08-05T11:44:06.777Z,3.20
2022-08-05T11:46:58.126Z,3.80
2022-08-05T11:49:27.646Z,4.15
2022-08-05T11:51:55.130Z,4.30
2022-08-05T11:54:33.284Z,4.85
2022-08-05T11:57:08.550Z,5.78
2022-08-05T11:59:52.389Z,7.22
2022-08-05T12:02:31.999Z,5.95
2022-08-05T12:05:07.831Z,5.47
2022-08-05T12:08:08.338Z,5.15
2022-08-05T12:10:43.037Z,5.90
2022-08-05T12:13:17.293Z,6.65
2022-08-05T12:15:57.934Z,7.35
2022-08-05T12:18:38.963Z,7.72
2022-08-05T12:21:16.209Z,6.35
2022-08-05T12:23:55.334Z,7.13
2022-08-05T12:26:23.926Z,7.70
2022-08-05T12:28:52.528Z,6.45
2022-08-05T12:31:23.389Z,6.93
2022-08-05T12:34:03.104Z,8.75
2022-08-05T12:36:31.266Z,7.30
2022-08-05T12:39:00.998Z,7.38
2022-08-05T12:41:43.625Z,7.10
2022-08-05T12:44:32.667Z,7.57
2022-08-05T12:47:03.885Z,8.50
2022-08-05T12:50:03.564Z,8.98
2022-08-05T12:52:41.941Z,9.75
2022-08-05T12:55:26.251Z,10.80
2022-08-05T12:58:49.881Z,11.38
2022-08-05T13:01:59.954Z,9.20
2022-08-05T13:03:38.901Z,10.52
2022-08-05T13:06:16.771Z,9.80
2022-08-05T13:08:51.694Z,9.05
2022-08-05T13:11:59.844Z,10.38
2022-08-05T13:14:24.531Z,9.55
2022-08-05T13:17:03.281Z,9.57
2022-08-05T13:19:52.414Z,13.65
2022-08-05T13:22:28.262Z,11.15
2022-08-05T13:25:00.396Z,11.45
2022-08-05T13:27:35.562Z,12.30
2022-08-05T13:30:34.353Z,12.98
2022-08-05T13:33:02.302Z,12.68
2022-08-05T13:35:43.179Z,11.90
2022-08-05T13:38:30.244Z,12.57
2022-08-05T13:41:01.789Z,15.93
2022-08-05T13:43:44.189Z,12.75
2022-08-05T13:46:50.960Z,13.10
2022-08-05T13:49:10.131Z,13.57
2022-08-05T13:51:46.614Z,14.25
2022-08-05T13:54:16.391Z,15.05
2022-08-05T13:56:50.736Z,14.65
2022-08-05T13:59:23.773Z,16.42
2022-08-05T14:02:00.107Z,16.25
2022-08-05T14:04:59.117Z,16.58
2022-08-05T14:08:00.083Z,15.35
2022-08-05T14:10:35.448Z,15.80
2022-08-05T14:13:08.813Z,15.27
2022-08-05T14:16:05.260Z,15.15
2022-08-05T14:18:24.228Z,15.93
2022-08-05T14:20:54.468Z,16.70
2022-08-05T14:23:25.795Z,16.13
2022-08-05T14:25:57.938Z,17.27
2022-08-05T14:28:31.075Z,17.20
2022-08-05T14:31:00.543Z,17.67
2022-08-05T14:33:56.592Z,16.15
2022-08-05T14:36:21.662Z,16.88
2022-08-05T14:38:51.267Z,17.10
2022-08-05T14:41:18.792Z,16.90
2022-08-05T14:44:01.666Z,17.58
2022-08-05T14:46:35.561Z,15.85
2022-08-05T14:49:07.277Z,14.68
2022-08-05T14:51:38.931Z,13.27
2022-08-05T14:54:28.479Z,9.98
2022-08-05T14:56:59.339Z,7.40
2022-08-05T14:59:35.372Z,7.07
2022-08-05T15:02:14.814Z,6.20
2022-08-05T15:04:44.925Z,6.13
2022-08-05T15:08:05.566Z,4.82
2022-08-05T15:10:09.874Z,5.05
2022-08-05T15:12:59.883Z,4.10
2022-08-05T15:15:54.483Z,5.28
2022-08-05T15:18:14.652Z,5.38
2022-08-05T15:20:44.434Z,6.97
2022-08-05T15:23:15.701Z,7.53
2022-08-05T15:25:53.841Z,5.20
2022-08-05T15:28:27.758Z,4.93
2022-08-05T15:30:56.565Z,5.35
2022-08-05T15:34:05.144Z,3.90
2022-08-05T15:36:17.557Z,4.53
2022-08-05T15:40:41.762Z,3.42
2022-08-05T15:41:56.053Z,5.20
2022-08-05T15:44:30.334Z,4.20
2022-08-05T15:47:01.054Z,3.85
2022-08-05T15:49:47.938Z,5.55
2022-08-05T15:52:53.773Z,4.13
2022-08-05T15:55:15.512Z,3.20
2022-08-05T15:57:44.946Z,4.75
2022-08-05T16:00:16.711Z,4.00
2022-08-05T16:02:53.749Z,3.90
2022-08-05T16:05:22.869Z,5.22
2022-08-05T16:07:57.413Z,3.78
2022-08-05T16:10:26.970Z,3.70
2022-08-05T16:12:55.990Z,4.78
2022-08-05T16:15:24.626Z,3.60
2022-08-05T16:18:00.122Z,3.53
2022-08-05T16:20:27.904Z,3.50
2022-08-05T16:22:55.162Z,3.08
2022-08-05T16:25:34.031Z,3.47
2022-08-05T16:28:05.861Z,3.67
2022-08-05T16:30:36.207Z,3.83
2022-08-05T16:33:05.057Z,4.20
2022-08-05T16:35:33.664Z,3.80
2022-08-05T16:38:24.346Z,4.20
2022-08-05T16:41:00.202Z,3.60
2022-08-05T16:43:33.497Z,4.15
2022-08-05T16:46:04.781Z,3.50
2022-08-05T16:48:38.593Z,4.88
2022-08-05T16:51:09.710Z,3.15
2022-08-05T16:54:02.883Z,3.88
2022-08-05T16:56:31.135Z,3.72
2022-08-05T16:59:00.848Z,3.40
2022-08-05T17:01:53.837Z,3.58
2022-08-05T17:04:28.250Z,3.42
2022-08-05T17:07:03.546Z,3.47
2022-08-05T17:09:55.961Z,3.10
2022-08-05T17:12:51.766Z,3.00
2022-08-05T17:15:19.211Z,3.17
2022-08-05T17:17:54.463Z,3.58
2022-08-05T17:20:29.949Z,3.05
2022-08-05T17:22:57.703Z,3.00
2022-08-05T17:25:34.143Z,4.05
2022-08-05T17:28:09.826Z,2.75
2022-08-05T17:30:42.380Z,4.03
2022-08-05T17:33:20.124Z,3.10
2022-08-05T17:36:08.682Z,3.33
2022-08-05T17:38:34.923Z,3.17
2022-08-05T17:41:02.549Z,3.97
2022-08-05T17:43:47.048Z,3.00
2022-08-05T17:46:20.344Z,2.85
2022-08-05T17:48:48.250Z,2.63
2022-08-05T17:51:21.870Z,3.22
2022-08-05T17:53:54.453Z,3.10
2022-08-05T17:56:22.585Z,2.70
2022-08-05T17:58:51.220Z,3.35
2022-08-05T18:01:19.962Z,3.03
2022-08-05T18:03:58.931Z,2.67
2022-08-05T18:06:31.814Z,3.05
2022-08-05T18:09:00.103Z,3.17
2022-08-05T18:11:33.601Z,2.53
2022-08-05T18:14:13.164Z,3.35
2022-08-05T18:16:46.874Z,3.15
2022-08-05T18:19:18.782Z,2.85
2022-08-05T18:22:08.832Z,3.38
2022-08-05T18:24:39.334Z,2.83
2022-08-05T18:27:18.192Z,3.53
2022-08-05T18:29:53.485Z,3.58
2022-08-05T18:32:21.570Z,3.30
2022-08-05T18:34:57.363Z,3.88
2022-08-05T18:37:34.210Z,4.50
2022-08-05T18:41:50.073Z,3.90
2022-08-05T18:42:59.077Z,4.35
2022-08-05T18:45:41.837Z,5.65
2022-08-05T18:48:11.033Z,4.40
2022-08-05T18:51:01.807Z,4.82
2022-08-05T18:53:50.113Z,4.57
2022-08-05T18:56:17.545Z,4.47
2022-08-05T18:58:51.000Z,4.05
2022-08-05T19:01:33.049Z,3.95
2022-08-05T19:04:00.590Z,6.72
2022-08-05T19:06:37.345Z,4.03
2022-08-05T19:09:12.514Z,4.78
2022-08-05T19:12:00.726Z,6.22
2022-08-05T19:14:59.531Z,4.57
2022-08-05T19:17:15.800Z,4.70
2022-08-05T19:19:46.883Z,5.78
2022-08-05T19:22:17.773Z,6.85
2022-08-05T19:24:54.224Z,8.35
2022-08-05T19:27:27.750Z,5.68
2022-08-05T19:29:58.399Z,7.03
2022-08-05T19:32:27.805Z,5.82
2022-08-05T19:34:57.909Z,7.88
2022-08-05T19:37:30.077Z,6.10
2022-08-05T19:40:15.259Z,8.70
2022-08-05T19:43:04.749Z,6.80
2022-08-05T19:45:36.287Z,6.55
2022-08-05T19:48:05.614Z,6.57
2022-08-05T19:50:34.989Z,7.00
2022-08-05T19:53:09.495Z,5.90
2022-08-05T19:56:12.556Z,6.88
2022-08-05T19:58:29.996Z,5.25
2022-08-05T20:00:59.562Z,5.65
2022-08-05T20:03:40.609Z,4.25
2022-08-05T20:06:11.700Z,5.60
2022-08-05T20:08:47.624Z,4.88
2022-08-05T20:11:19.514Z,3.50
2022-08-05T20:13:59.134Z,3.20
2022-08-05T20:16:36.880Z,4.63
2022-08-05T20:19:05.762Z,5.80
2022-08-05T20:21:38.356Z,5.22
2022-08-05T20:24:07.301Z,2.75
2022-08-05T20:26:39.989Z,4.78
2022-08-05T20:29:26.721Z,3.45
2022-08-05T20:31:58.366Z,4.05
2022-08-05T20:34:27.425Z,3.07
2022-08-05T20:36:55.254Z,3.80
2022-08-05T20:39:24.304Z,5.05
2022-08-05T20:42:05.777Z,4.93
2022-08-05T20:44:34.625Z,3.10
2022-08-05T20:47:07.704Z,7.53
2022-08-05T20:49:39.288Z,4.43
2022-08-05T20:52:08.803Z,7.43
2022-08-05T20:54:42.759Z,3.57
2022-08-05T20:57:14.242Z,3.97
2022-08-05T21:00:10.661Z,3.40
2022-08-05T21:02:29.713Z,3.03
2022-08-05T21:04:56.641Z,4.83
2022-08-05T21:07:25.087Z,5.87
2022-08-05T21:10:13.860Z,4.90
2022-08-05T21:12:41.504Z,5.90
2022-08-05T21:15:26.877Z,7.43
2022-08-05T21:18:02.412Z,4.05
2022-08-05T21:20:33.364Z,6.00
2022-08-05T21:23:03.223Z,4.10
2022-08-05T21:25:33.674Z,5.97
2022-08-05T21:28:03.303Z,5.40
2022-08-05T21:30:31.691Z,5.32
2022-08-05T21:32:59.938Z,4.70
2022-08-05T21:35:55.851Z,4.93
2022-08-05T21:38:19.227Z,7.50
2022-08-05T21:40:46.927Z,4.07
2022-08-05T21:43:24.108Z,3.50
2022-08-05T21:45:57.836Z,6.23
2022-08-05T21:48:28.896Z,4.70
2022-08-05T21:50:57.349Z,5.13
2022-08-05T21:53:27.158Z,5.63
2022-08-05T21:56:05.996Z,3.63
2022-08-05T21:58:56.919Z,5.57
2022-08-05T22:01:26.340Z,3.73
2022-08-05T22:03:54.799Z,3.97
2022-08-05T22:06:34.883Z,3.50
2022-08-05T22:09:15.182Z,5.20
2022-08-05T22:11:49.338Z,3.73
2022-08-05T22:14:35.064Z,5.13
2022-08-05T22:17:07.236Z,7.30
2022-08-05T22:20:00.080Z,5.10
2022-08-05T22:22:27.625Z,6.50
2022-08-05T22:25:21.772Z,3.97
2022-08-05T22:28:08.640Z,4.20
2022-08-05T22:30:55.518Z,4.77
2022-08-05T22:33:55.854Z,3.90
2022-08-05T22:36:16.585Z,4.10
2022-08-05T22:38:48.665Z,5.17
2022-08-05T22:41:26.436Z,4.70
2022-08-05T22:44:06.964Z,5.90
2022-08-05T22:46:39.996Z,4.50
2022-08-05T22:49:23.406Z,5.53
2022-08-05T22:52:05.659Z,5.17
2022-08-05T22:54:39.059Z,4.70
2022-08-05T22:57:06.571Z,5.03
2022-08-05T22:59:42.980Z,4.17
2022-08-05T23:02:18.106Z,3.97
2022-08-05T23:04:51.317Z,5.30
2022-08-05T23:07:22.344Z,7.00
2022-08-05T23:09:56.993Z,4.30
2022-08-05T23:12:32.559Z,4.07
2022-08-05T23:15:03.057Z,3.00
2022-08-05T23:17:37.160Z,3.97
2022-08-05T23:20:21.559Z,2.20
2022-08-05T23:22:55.624Z,4.17
2022-08-05T23:25:53.303Z,2.60
2022-08-05T23:28:15.765Z,2.20
2022-08-05T23:30:53.054Z,2.30
2022-08-05T23:33:26.162Z,1.70
2022-08-05T23:36:13.526Z,2.17
2022-08-05T23:38:42.845Z,1.33
2022-08-05T23:41:11.632Z,1.63
2022-08-05T23:44:04.557Z,3.30
2022-08-05T23:46:29.696Z,1.77
2022-08-05T23:48:59.731Z,0.77
2022-08-05T23:51:53.920Z,1.23
2022-08-05T23:54:26.201Z,2.63
2022-08-05T23:56:55.763Z,0.60
